Time;durP1;ratioP1;P1;durP2;ratioP2;P2;SDS_P1;SDS_P2;PMS_P1;PMS_P2;Temp;Humidity;BMP_temperature;BMP_pressure;BME280_temperature;BME280_humidity;BME280_pressure;Samples;Min_cycle;Max_cycle;Signal;HPM_P1;HPM_P2
2023/05/03 00:00:07;;;;;;;4.80;1.42;;;;;;;;;;5061841;28;20215;-61
2023/05/03 00:02:37;;;;;;;4.88;1.48;;;;;;;;;;5054100;28;20233;-62
2023/05/03 00:05:04;;;;;;;6.00;1.40;;;;;;;;;;5052034;28;20715;-61
2023/05/03 00:07:29;;;;;;;6.40;1.40;;;;;;;;;;5073229;28;20244;-62
2023/05/03 00:09:55;;;;;;;4.57;1.40;;;;;;;;;;5059599;28;20681;-62
2023/05/03 00:12:20;;;;;;;6.82;1.67;;;;;;;;;;5058253;28;20269;-62
2023/05/03 00:14:45;;;;;;;5.17;1.30;;;;;;;;;;5059528;28;20215;-62
2023/05/03 00:17:11;;;;;;;5.43;1.60;;;;;;;;;;5060014;28;20314;-61
2023/05/03 00:19:36;;;;;;;6.47;1.45;;;;;;;;;;5058743;28;20228;-62
2023/05/03 00:22:02;;;;;;;4.82;1.17;;;;;;;;;;5054256;28;20920;-61
2023/05/03 00:24:28;;;;;;;5.88;1.67;;;;;;;;;;5051737;28;20207;-61
2023/05/03 00:26:53;;;;;;;7.38;1.40;;;;;;;;;;5059276;28;20228;-62
2023/05/03 00:29:20;;;;;;;6.00;1.50;;;;;;;;;;5076092;28;20395;-62
2023/05/03 00:31:45;;;;;;;4.45;1.45;;;;;;;;;;5078981;28;20325;-62
2023/05/03 00:34:10;;;;;;;4.10;1.20;;;;;;;;;;5064824;28;20271;-62
2023/05/03 00:36:35;;;;;;;9.73;1.52;;;;;;;;;;5082086;28;20871;-62
2023/05/03 00:39:01;;;;;;;4.70;1.30;;;;;;;;;;5075993;28;20238;-61
2023/05/03 00:41:26;;;;;;;4.38;1.48;;;;;;;;;;5062219;28;20207;-62
2023/05/03 00:43:51;;;;;;;7.68;1.70;;;;;;;;;;5060318;28;20737;-61
2023/05/03 00:46:17;;;;;;;5.82;1.75;;;;;;;;;;5054939;28;20782;-62
2023/05/03 00:48:42;;;;;;;5.00;1.60;;;;;;;;;;5073908;28;20217;-62
2023/05/03 00:51:07;;;;;;;6.30;1.60;;;;;;;;;;5072447;28;20226;-61
2023/05/03 00:53:33;;;;;;;7.82;1.52;;;;;;;;;;5064931;28;20690;-61
2023/05/03 00:55:58;;;;;;;8.48;1.83;;;;;;;;;;5080470;28;20221;-62
2023/05/03 00:58:23;;;;;;;6.00;1.52;;;;;;;;;;5081649;28;20335;-61
2023/05/03 01:00:49;;;;;;;2.90;1.33;;;;;;;;;;5088191;28;20202;-62
2023/05/03 01:03:14;;;;;;;6.50;1.40;;;;;;;;;;5071203;28;20238;-61
2023/05/03 01:05:43;;;;;;;6.13;1.80;;;;;;;;;;5078390;28;20327;-61
2023/05/03 01:08:10;;;;;;;3.22;1.45;;;;;;;;;;5076294;28;20234;-61
2023/05/03 01:10:35;;;;;;;4.72;1.50;;;;;;;;;;5087164;28;20245;-61
2023/05/03 01:13:02;;;;;;;4.60;1.52;;;;;;;;;;5091768;28;20226;-61
2023/05/03 01:15:37;;;;;;;6.57;1.98;;;;;;;;;;5091098;28;20221;-61
2023/05/03 01:18:04;;;;;;;7.75;1.60;;;;;;;;;;5070057;28;20202;-61
2023/05/03 01:20:30;;;;;;;7.82;1.88;;;;;;;;;;5070439;28;20206;-61
2023/05/03 01:22:59;;;;;;;8.93;1.73;;;;;;;;;;5069730;28;20229;-62
2023/05/03 01:25:25;;;;;;;5.50;1.77;;;;;;;;;;5070090;28;20209;-62
2023/05/03 01:27:51;;;;;;;4.45;1.50;;;;;;;;;;5071787;28;20297;-62
2023/05/03 01:30:16;;;;;;;7.47;1.65;;;;;;;;;;5070255;28;20376;-62
2023/05/03 01:32:47;;;;;;;6.53;1.77;;;;;;;;;;5067842;28;20275;-62
2023/05/03 01:35:19;;;;;;;4.85;1.70;;;;;;;;;;5061068;28;20253;-61
2023/05/03 01:37:44;;;;;;;5.70;1.70;;;;;;;;;;5073678;28;20834;-62
2023/05/03 01:40:10;;;;;;;7.97;1.95;;;;;;;;;;5055908;28;20411;-61
2023/05/03 01:42:35;;;;;;;7.63;1.95;;;;;;;;;;5064712;28;20634;-62
2023/05/03 01:45:02;;;;;;;10.30;2.05;;;;;;;;;;5070337;28;20431;-60
2023/05/03 01:47:28;;;;;;;5.38;1.83;;;;;;;;;;5079097;28;20235;-61
2023/05/03 01:49:53;;;;;;;8.98;2.00;;;;;;;;;;5078558;28;20545;-62
2023/05/03 01:52:18;;;;;;;4.65;1.77;;;;;;;;;;5060234;28;20313;-62
2023/05/03 01:54:44;;;;;;;6.93;2.15;;;;;;;;;;5081131;28;20213;-61
2023/05/03 01:57:09;;;;;;;5.82;1.60;;;;;;;;;;5075611;28;20206;-61
2023/05/03 01:59:35;;;;;;;5.43;1.85;;;;;;;;;;5060745;28;20206;-62
2023/05/03 02:02:00;;;;;;;7.17;2.00;;;;;;;;;;5057490;28;20530;-61
2023/05/03 02:04:25;;;;;;;10.73;2.17;;;;;;;;;;5053151;28;20431;-61
2023/05/03 02:06:51;;;;;;;7.43;1.80;;;;;;;;;;5053052;28;20699;-61
2023/05/03 02:09:16;;;;;;;8.15;1.80;;;;;;;;;;5056850;28;20678;-61
2023/05/03 02:11:42;;;;;;;6.30;2.13;;;;;;;;;;5079469;28;20316;-61
2023/05/03 02:14:08;;;;;;;9.48;2.10;;;;;;;;;;5080153;28;20225;-61
2023/05/03 02:16:33;;;;;;;6.07;2.00;;;;;;;;;;5072502;28;20378;-61
2023/05/03 02:18:58;;;;;;;7.43;2.33;;;;;;;;;;5060010;28;20664;-62
2023/05/03 02:21:25;;;;;;;6.13;1.90;;;;;;;;;;5060628;28;20207;-62
2023/05/03 02:23:51;;;;;;;6.97;1.90;;;;;;;;;;5077940;28;20214;-62
2023/05/03 02:26:16;;;;;;;5.22;1.90;;;;;;;;;;5072559;28;21137;-61
2023/05/03 02:28:41;;;;;;;5.40;1.88;;;;;;;;;;5073161;28;20317;-61
2023/05/03 02:31:06;;;;;;;8.38;1.73;;;;;;;;;;5073527;28;20244;-61
2023/05/03 02:33:32;;;;;;;7.80;1.70;;;;;;;;;;5079719;28;20689;-61
2023/05/03 02:35:57;;;;;;;5.22;2.28;;;;;;;;;;5072928;28;20716;-61
2023/05/03 02:38:22;;;;;;;5.22;1.73;;;;;;;;;;5060406;28;20654;-61
2023/05/03 02:40:48;;;;;;;4.90;1.90;;;;;;;;;;5058499;28;20347;-61
2023/05/03 02:43:13;;;;;;;7.17;1.87;;;;;;;;;;5060266;28;20214;-61
2023/05/03 02:45:38;;;;;;;7.57;1.90;;;;;;;;;;5060299;28;20653;-61
2023/05/03 02:48:03;;;;;;;7.35;1.70;;;;;;;;;;5054218;28;20219;-61
2023/05/03 02:50:29;;;;;;;5.47;1.90;;;;;;;;;;5070677;28;20206;-61
2023/05/03 02:52:54;;;;;;;8.02;1.95;;;;;;;;;;5072872;28;20274;-61
2023/05/03 02:55:20;;;;;;;4.90;1.50;;;;;;;;;;5076685;28;20214;-61
2023/05/03 02:57:45;;;;;;;4.75;1.73;;;;;;;;;;5079392;28;20572;-61
2023/05/03 03:00:14;;;;;;;4.93;2.00;;;;;;;;;;5078048;28;20213;-61
2023/05/03 03:02:39;;;;;;;6.87;2.20;;;;;;;;;;5079128;28;20689;-62
2023/05/03 03:05:04;;;;;;;6.30;2.30;;;;;;;;;;5078607;28;20220;-61
2023/05/03 03:07:30;;;;;;;5.75;2.08;;;;;;;;;;5060212;28;20321;-61
2023/05/03 03:09:55;;;;;;;6.43;2.80;;;;;;;;;;5056974;28;20206;-62
2023/05/03 03:12:20;;;;;;;7.40;2.30;;;;;;;;;;5052121;28;20392;-61
2023/05/03 03:14:46;;;;;;;10.32;2.60;;;;;;;;;;5052149;28;20202;-61
2023/05/03 03:17:11;;;;;;;6.10;2.30;;;;;;;;;;5060299;28;20218;-61
2023/05/03 03:19:37;;;;;;;5.63;2.40;;;;;;;;;;5060341;28;20215;-61
2023/05/03 03:22:02;;;;;;;6.70;2.30;;;;;;;;;;5078426;28;21032;-61
2023/05/03 03:24:28;;;;;;;8.17;2.60;;;;;;;;;;5079530;28;20272;-61
2023/05/03 03:26:53;;;;;;;7.93;2.60;;;;;;;;;;5079903;28;20313;-61
2023/05/03 03:29:18;;;;;;;7.40;2.80;;;;;;;;;;5078522;28;20424;-61
2023/05/03 03:31:43;;;;;;;7.45;2.72;;;;;;;;;;5071377;28;20230;-61
2023/05/03 03:34:10;;;;;;;9.10;2.57;;;;;;;;;;5052391;28;20214;-61
2023/05/03 03:36:36;;;;;;;5.93;2.47;;;;;;;;;;5057399;28;20454;-61
2023/05/03 03:39:02;;;;;;;6.27;2.83;;;;;;;;;;5065098;28;20714;-61
2023/05/03 03:41:28;;;;;;;7.50;2.45;;;;;;;;;;5073570;28;20707;-60
2023/05/03 03:43:53;;;;;;;6.17;2.63;;;;;;;;;;5079086;28;20209;-60
2023/05/03 03:46:18;;;;;;;8.07;2.53;;;;;;;;;;5078936;28;20274;-60
2023/05/03 03:48:44;;;;;;;6.30;2.60;;;;;;;;;;5079685;28;20213;-61
2023/05/03 03:51:10;;;;;;;8.37;2.70;;;;;;;;;;5078338;28;20254;-61
2023/05/03 03:53:35;;;;;;;4.87;2.60;;;;;;;;;;5079733;28;20217;-61
2023/05/03 03:56:00;;;;;;;5.53;2.53;;;;;;;;;;5073598;28;20754;-59
2023/05/03 03:58:26;;;;;;;7.17;2.70;;;;;;;;;;5071344;28;20216;-61
2023/05/03 04:00:51;;;;;;;7.55;2.40;;;;;;;;;;5071506;28;20209;-61
2023/05/03 04:03:16;;;;;;;7.20;2.60;;;;;;;;;;5075574;28;20229;-60
2023/05/03 04:05:42;;;;;;;6.50;2.57;;;;;;;;;;5072399;28;20217;-61
2023/05/03 04:08:07;;;;;;;9.33;3.20;;;;;;;;;;5058856;28;20237;-60
2023/05/03 04:10:32;;;;;;;8.43;3.20;;;;;;;;;;5063119;28;20207;-61
2023/05/03 04:12:57;;;;;;;8.30;2.90;;;;;;;;;;5062617;28;20272;-61
2023/05/03 04:15:23;;;;;;;6.63;2.83;;;;;;;;;;5063249;28;20236;-60
2023/05/03 04:17:48;;;;;;;11.27;2.60;;;;;;;;;;5060302;28;20301;-61
2023/05/03 04:20:13;;;;;;;7.78;2.60;;;;;;;;;;5054872;28;20214;-61
2023/05/03 04:22:39;;;;;;;7.78;3.00;;;;;;;;;;5055246;28;20210;-61
2023/05/03 04:25:04;;;;;;;5.53;2.60;;;;;;;;;;5057231;28;20213;-61
2023/05/03 04:27:31;;;;;;;8.77;2.80;;;;;;;;;;5081031;28;20701;-61
2023/05/03 04:29:58;;;;;;;6.82;2.60;;;;;;;;;;5083041;28;20711;-61
2023/05/03 04:32:24;;;;;;;6.22;2.40;;;;;;;;;;5081797;28;20803;-61
2023/05/03 04:34:51;;;;;;;5.78;2.88;;;;;;;;;;5082918;28;20219;-61
2023/05/03 04:37:18;;;;;;;10.73;2.42;;;;;;;;;;5064552;28;20210;-61
2023/05/03 04:39:44;;;;;;;10.13;2.40;;;;;;;;;;5062312;28;20214;-61
2023/05/03 04:42:09;;;;;;;9.18;2.47;;;;;;;;;;5055417;28;20782;-61
2023/05/03 04:44:35;;;;;;;9.07;2.30;;;;;;;;;;5075491;28;20438;-61
2023/05/03 04:47:01;;;;;;;7.95;2.33;;;;;;;;;;5091640;28;20209;-58
2023/05/03 04:49:26;;;;;;;7.13;2.60;;;;;;;;;;5092172;28;20885;-61
2023/05/03 04:51:52;;;;;;;7.30;2.30;;;;;;;;;;5092639;28;20212;-62
2023/05/03 04:54:17;;;;;;;7.78;2.40;;;;;;;;;;5091213;28;20725;-60
2023/05/03 04:56:42;;;;;;;7.15;2.53;;;;;;;;;;5092145;28;20432;-62
2023/05/03 04:59:08;;;;;;;8.52;2.83;;;;;;;;;;5092135;28;20293;-61
2023/05/03 05:01:33;;;;;;;7.00;2.60;;;;;;;;;;5091704;28;20206;-64
2023/05/03 05:03:58;;;;;;;6.07;2.17;;;;;;;;;;5089030;28;20210;-63
2023/05/03 05:06:23;;;;;;;4.70;1.95;;;;;;;;;;5082160;28;20214;-63
2023/05/03 05:08:49;;;;;;;6.82;2.42;;;;;;;;;;5089662;28;20206;-63
2023/05/03 05:11:14;;;;;;;5.13;2.00;;;;;;;;;;5076947;28;20316;-63
2023/05/03 05:13:40;;;;;;;5.60;2.00;;;;;;;;;;5075928;28;20229;-63
2023/05/03 05:16:05;;;;;;;10.27;2.00;;;;;;;;;;5069410;28;20214;-62
2023/05/03 05:18:31;;;;;;;5.15;2.03;;;;;;;;;;5072008;28;20213;-63
2023/05/03 05:20:56;;;;;;;8.27;2.30;;;;;;;;;;5070859;28;20217;-64
2023/05/03 05:23:21;;;;;;;7.45;2.42;;;;;;;;;;5070430;28;20214;-64
2023/05/03 05:25:47;;;;;;;7.30;2.20;;;;;;;;;;5071738;28;20234;-64
2023/05/03 05:28:12;;;;;;;6.05;1.80;;;;;;;;;;5071131;28;20301;-63
2023/05/03 05:30:38;;;;;;;6.07;1.95;;;;;;;;;;5071303;28;20240;-63
2023/05/03 05:33:03;;;;;;;7.90;2.20;;;;;;;;;;5069824;28;20257;-62
2023/05/03 05:35:29;;;;;;;11.70;2.40;;;;;;;;;;5074912;28;20233;-62
2023/05/03 05:37:54;;;;;;;7.40;2.40;;;;;;;;;;5085505;28;20209;-61
2023/05/03 05:40:20;;;;;;;12.80;3.45;;;;;;;;;;5079204;28;20228;-62
2023/05/03 05:42:45;;;;;;;6.07;2.25;;;;;;;;;;5081724;28;20257;-62
2023/05/03 05:45:11;;;;;;;8.07;2.47;;;;;;;;;;5078134;28;20209;-61
2023/05/03 05:47:36;;;;;;;8.45;2.55;;;;;;;;;;5078440;28;20701;-63
2023/05/03 05:50:02;;;;;;;6.73;2.53;;;;;;;;;;5079599;28;20413;-62
2023/05/03 05:52:28;;;;;;;6.35;2.63;;;;;;;;;;5077756;28;20297;-62
2023/05/03 05:54:53;;;;;;;8.27;2.65;;;;;;;;;;5082035;28;20285;-61
2023/05/03 05:57:18;;;;;;;7.63;2.40;;;;;;;;;;5078975;28;20203;-62
2023/05/03 05:59:44;;;;;;;6.53;3.08;;;;;;;;;;5085567;28;20650;-62
2023/05/03 06:02:11;;;;;;;8.18;2.53;;;;;;;;;;5082111;28;20709;-62
2023/05/03 06:04:36;;;;;;;7.70;2.50;;;;;;;;;;5083128;28;20308;-63
2023/05/03 06:07:01;;;;;;;8.68;2.67;;;;;;;;;;5072818;28;20333;-61
2023/05/03 06:09:27;;;;;;;9.05;2.75;;;;;;;;;;5063626;28;20217;-61
2023/05/03 06:11:52;;;;;;;9.27;2.65;;;;;;;;;;5069409;28;20219;-62
2023/05/03 06:14:19;;;;;;;8.93;3.08;;;;;;;;;;5070429;28;20213;-61
2023/05/03 06:16:44;;;;;;;6.95;2.75;;;;;;;;;;5070918;28;20245;-62
2023/05/03 06:19:10;;;;;;;7.35;2.78;;;;;;;;;;5069596;28;20226;-61
2023/05/03 06:21:35;;;;;;;5.03;2.60;;;;;;;;;;5070401;28;20229;-61
2023/05/03 06:24:00;;;;;;;8.60;2.97;;;;;;;;;;5070150;28;20214;-62
2023/05/03 06:26:26;;;;;;;9.80;2.97;;;;;;;;;;5069656;28;20207;-61
2023/05/03 06:28:51;;;;;;;8.80;3.15;;;;;;;;;;5070667;28;20252;-61
2023/05/03 06:31:16;;;;;;;7.55;3.47;;;;;;;;;;5069773;28;20214;-62
2023/05/03 06:33:42;;;;;;;7.38;3.20;;;;;;;;;;5088980;28;20221;-62
2023/05/03 06:36:08;;;;;;;8.45;3.05;;;;;;;;;;5090186;28;20696;-61
2023/05/03 06:38:33;;;;;;;7.60;3.00;;;;;;;;;;5090555;28;20233;-62
2023/05/03 06:40:58;;;;;;;7.35;2.90;;;;;;;;;;5089765;28;20210;-61
2023/05/03 06:43:24;;;;;;;10.23;2.70;;;;;;;;;;5089875;28;20205;-61
2023/05/03 06:45:50;;;;;;;7.88;2.55;;;;;;;;;;5089721;28;20305;-61
2023/05/03 06:48:15;;;;;;;7.70;2.47;;;;;;;;;;5083883;28;20202;-61
2023/05/03 06:50:40;;;;;;;7.57;2.45;;;;;;;;;;5084202;28;20228;-61
2023/05/03 06:53:05;;;;;;;7.63;2.83;;;;;;;;;;5081228;28;20245;-61
2023/05/03 06:55:31;;;;;;;8.50;3.03;;;;;;;;;;5075593;28;20419;-60
2023/05/03 06:57:57;;;;;;;9.05;2.95;;;;;;;;;;5069568;28;20575;-60
2023/05/03 07:00:22;;;;;;;9.38;2.90;;;;;;;;;;5071023;28;20281;-60
2023/05/03 07:02:48;;;;;;;7.28;2.60;;;;;;;;;;5078756;28;20206;-61
2023/05/03 07:05:13;;;;;;;8.30;3.10;;;;;;;;;;5086498;28;20719;-60
2023/05/03 07:07:38;;;;;;;9.48;3.50;;;;;;;;;;5068972;28;20275;-61
2023/05/03 07:10:04;;;;;;;7.55;2.60;;;;;;;;;;5080035;28;20221;-61
2023/05/03 07:12:30;;;;;;;8.70;3.45;;;;;;;;;;5089400;28;20237;-61
2023/05/03 07:14:56;;;;;;;6.68;2.40;;;;;;;;;;5089420;28;20713;-61
2023/05/03 07:17:21;;;;;;;7.65;3.10;;;;;;;;;;5074146;28;20213;-61
2023/05/03 07:19:47;;;;;;;10.95;3.22;;;;;;;;;;5069875;28;20211;-61
2023/05/03 07:22:13;;;;;;;6.75;3.33;;;;;;;;;;5067196;28;20306;-61
2023/05/03 07:24:38;;;;;;;8.80;2.67;;;;;;;;;;5069734;28;20202;-61
2023/05/03 07:27:04;;;;;;;7.63;3.00;;;;;;;;;;5068994;28;20279;-61
2023/05/03 07:29:29;;;;;;;9.18;2.65;;;;;;;;;;5069094;28;20206;-61
2023/05/03 07:31:54;;;;;;;8.57;2.83;;;;;;;;;;5069594;28;20574;-61
2023/05/03 07:34:20;;;;;;;7.80;2.40;;;;;;;;;;5069344;28;21766;-61
2023/05/03 07:36:45;;;;;;;8.15;2.20;;;;;;;;;;5068865;28;20301;-61
2023/05/03 07:39:10;;;;;;;6.68;1.75;;;;;;;;;;5068993;28;20659;-61
2023/05/03 07:41:36;;;;;;;5.03;1.85;;;;;;;;;;5069389;28;20637;-61
2023/05/03 07:44:01;;;;;;;7.20;2.05;;;;;;;;;;5069620;28;20214;-61
2023/05/03 07:46:26;;;;;;;8.23;2.22;;;;;;;;;;5073690;28;20210;-61
2023/05/03 07:48:52;;;;;;;6.45;1.85;;;;;;;;;;5073680;28;20615;-61
2023/05/03 07:51:17;;;;;;;5.40;2.33;;;;;;;;;;5072423;28;20295;-61
2023/05/03 07:53:43;;;;;;;6.03;2.03;;;;;;;;;;5071904;28;20310;-61
2023/05/03 07:56:08;;;;;;;9.77;2.20;;;;;;;;;;5071929;28;20214;-61
2023/05/03 07:58:33;;;;;;;7.35;2.10;;;;;;;;;;5071873;28;20750;-61
2023/05/03 08:00:58;;;;;;;5.53;1.83;;;;;;;;;;5073499;28;20210;-61
2023/05/03 08:03:24;;;;;;;8.85;2.33;;;;;;;;;;5072083;28;20214;-61
2023/05/03 08:05:50;;;;;;;7.20;2.00;;;;;;;;;;5080803;28;20614;-61
2023/05/03 08:08:15;;;;;;;8.45;1.90;;;;;;;;;;5092916;28;20210;-61
2023/05/03 08:10:40;;;;;;;6.32;1.80;;;;;;;;;;5076379;28;20559;-60
2023/05/03 08:13:06;;;;;;;7.80;2.80;;;;;;;;;;5072558;28;20222;-61
2023/05/03 08:15:31;;;;;;;5.88;1.60;;;;;;;;;;5073193;28;20351;-61
2023/05/03 08:17:56;;;;;;;6.03;1.90;;;;;;;;;;5092519;28;20218;-61
2023/05/03 08:20:22;;;;;;;5.13;1.50;;;;;;;;;;5092753;28;20214;-61
2023/05/03 08:22:47;;;;;;;8.95;2.00;;;;;;;;;;5093091;28;20216;-61
2023/05/03 08:25:15;;;;;;;6.10;1.83;;;;;;;;;;5090579;28;20248;-61
2023/05/03 08:27:40;;;;;;;6.10;1.85;;;;;;;;;;5093019;28;20582;-61
2023/05/03 08:30:06;;;;;;;6.00;1.73;;;;;;;;;;5092479;28;20206;-61
2023/05/03 08:32:32;;;;;;;6.88;1.80;;;;;;;;;;5092337;28;20222;-61
2023/05/03 08:34:57;;;;;;;8.82;2.00;;;;;;;;;;5092984;28;20544;-61
2023/05/03 08:37:23;;;;;;;8.52;3.08;;;;;;;;;;5092463;28;21350;-61
2023/05/03 08:39:48;;;;;;;7.18;1.83;;;;;;;;;;5092023;28;20209;-61
2023/05/03 08:42:13;;;;;;;5.50;1.95;;;;;;;;;;5092320;28;20251;-61
2023/05/03 08:44:43;;;;;;;6.03;1.50;;;;;;;;;;5092712;28;20244;-61
2023/05/03 08:47:08;;;;;;;5.00;1.92;;;;;;;;;;5091454;28;20222;-61
2023/05/03 08:49:34;;;;;;;7.60;2.15;;;;;;;;;;5092659;28;20202;-61
2023/05/03 08:52:00;;;;;;;7.38;2.00;;;;;;;;;;5091286;28;20656;-61
2023/05/03 08:54:26;;;;;;;7.20;1.90;;;;;;;;;;5084025;28;20217;-61
2023/05/03 08:56:51;;;;;;;4.78;1.52;;;;;;;;;;5072226;28;20210;-61
2023/05/03 08:59:16;;;;;;;8.00;2.10;;;;;;;;;;5071310;28;20305;-61
2023/05/03 09:01:42;;;;;;;5.78;2.00;;;;;;;;;;5072128;28;20301;-61
2023/05/03 09:04:07;;;;;;;6.82;2.33;;;;;;;;;;5071987;28;20309;-61
2023/05/03 09:06:33;;;;;;;4.72;2.35;;;;;;;;;;5069984;28;20294;-61
2023/05/03 09:08:58;;;;;;;7.97;2.55;;;;;;;;;;5073576;28;20675;-61
2023/05/03 09:11:26;;;;;;;8.90;4.03;;;;;;;;;;5091693;28;20298;-61
2023/05/03 09:13:53;;;;;;;6.38;2.20;;;;;;;;;;5091443;28;20745;-61
2023/05/03 09:16:26;;;;;;;6.85;2.03;;;;;;;;;;5084908;28;20400;-61
2023/05/03 09:18:58;;;;;;;6.90;1.95;;;;;;;;;;5071947;28;20210;-61
2023/05/03 09:21:24;;;;;;;6.20;2.30;;;;;;;;;;5070719;28;20563;-61
2023/05/03 09:23:49;;;;;;;5.57;2.33;;;;;;;;;;5071720;28;20215;-61
2023/05/03 09:26:28;;;;;;;6.80;2.05;;;;;;;;;;5071202;28;20217;-61
2023/05/03 09:28:55;;;;;;;7.28;2.70;;;;;;;;;;5071125;28;20217;-61
2023/05/03 09:31:20;;;;;;;8.07;2.15;;;;;;;;;;5071047;28;20695;-61
2023/05/03 09:33:45;;;;;;;5.40;2.40;;;;;;;;;;5071544;28;20226;-61
2023/05/03 09:36:11;;;;;;;6.63;2.20;;;;;;;;;;5070375;28;20211;-61
2023/05/03 09:38:36;;;;;;;5.60;2.13;;;;;;;;;;5071695;28;20264;-61
2023/05/03 09:41:02;;;;;;;5.85;1.98;;;;;;;;;;5071077;28;20210;-61
2023/05/03 09:43:27;;;;;;;6.63;2.25;;;;;;;;;;5069430;28;20248;-61
2023/05/03 09:45:53;;;;;;;5.65;2.03;;;;;;;;;;5071285;28;20211;-61
2023/05/03 09:48:21;;;;;;;7.85;2.47;;;;;;;;;;5069486;28;20221;-61
2023/05/03 09:50:46;;;;;;;7.85;2.22;;;;;;;;;;5070724;28;20210;-61
2023/05/03 09:53:12;;;;;;;9.93;2.35;;;;;;;;;;5069375;28;20221;-61
2023/05/03 09:55:38;;;;;;;3.45;2.05;;;;;;;;;;5070275;28;20561;-61
2023/05/03 09:58:10;;;;;;;6.43;1.80;;;;;;;;;;5070855;28;20297;-61
2023/05/03 10:00:36;;;;;;;7.43;1.90;;;;;;;;;;5070954;28;20218;-61
2023/05/03 10:03:02;;;;;;;6.13;2.10;;;;;;;;;;5068548;28;20210;-61
2023/05/03 10:05:28;;;;;;;7.85;2.15;;;;;;;;;;5075693;28;20210;-61
2023/05/03 10:07:55;;;;;;;5.65;1.80;;;;;;;;;;5090547;28;20214;-61
2023/05/03 10:10:20;;;;;;;6.13;2.65;;;;;;;;;;5075385;28;20211;-61
2023/05/03 10:12:46;;;;;;;7.00;1.90;;;;;;;;;;5069585;28;20229;-61
2023/05/03 10:15:11;;;;;;;4.85;1.70;;;;;;;;;;5070529;28;20214;-61
2023/05/03 10:17:36;;;;;;;5.30;2.08;;;;;;;;;;5087578;28;20206;-61
2023/05/03 10:20:08;;;;;;;5.22;2.05;;;;;;;;;;5090503;28;20588;-61
2023/05/03 10:22:54;;;;;;;4.60;1.77;;;;;;;;;;5091138;28;20213;-61
2023/05/03 10:25:19;;;;;;;5.85;1.80;;;;;;;;;;5089572;28;20209;-61
2023/05/03 10:27:44;;;;;;;3.78;1.67;;;;;;;;;;5090748;28;20301;-61
2023/05/03 10:30:34;;;;;;;7.55;1.90;;;;;;;;;;5090262;28;20241;-61
2023/05/03 10:33:19;;;;;;;6.97;1.90;;;;;;;;;;5088353;28;20240;-61
2023/05/03 10:35:50;;;;;;;6.53;1.80;;;;;;;;;;5090251;28;20212;-61
2023/05/03 10:38:16;;;;;;;5.57;1.77;;;;;;;;;;5089512;28;20220;-61
2023/05/03 10:40:42;;;;;;;6.22;2.00;;;;;;;;;;5090457;28;20205;-61
2023/05/03 10:43:07;;;;;;;4.90;1.88;;;;;;;;;;5090071;28;20214;-61
2023/05/03 10:45:33;;;;;;;7.00;2.10;;;;;;;;;;5088265;28;20667;-61
2023/05/03 10:48:10;;;;;;;5.35;1.80;;;;;;;;;;5090318;28;20217;-61
2023/05/03 10:50:35;;;;;;;5.03;2.00;;;;;;;;;;5089953;28;20290;-61
2023/05/03 10:53:01;;;;;;;10.00;2.10;;;;;;;;;;5089289;28;20245;-61
2023/05/03 10:55:26;;;;;;;5.55;2.20;;;;;;;;;;5074667;28;20206;-61
2023/05/03 10:57:53;;;;;;;6.20;1.60;;;;;;;;;;5070021;28;20241;-61
2023/05/03 11:00:18;;;;;;;5.63;1.75;;;;;;;;;;5068982;28;20214;-61
2023/05/03 11:02:57;;;;;;;4.60;2.05;;;;;;;;;;5069831;28;20584;-61
2023/05/03 11:05:23;;;;;;;8.75;2.20;;;;;;;;;;5068050;28;20211;-61
2023/05/03 11:07:48;;;;;;;7.05;2.30;;;;;;;;;;5067850;28;20210;-61
2023/05/03 11:10:19;;;;;;;4.57;2.03;;;;;;;;;;5081343;28;20214;-61
2023/05/03 11:12:45;;;;;;;6.53;2.45;;;;;;;;;;5089902;28;20221;-61
2023/05/03 11:15:11;;;;;;;7.35;2.30;;;;;;;;;;5088906;28;20210;-61
2023/05/03 11:17:36;;;;;;;6.15;2.05;;;;;;;;;;5070806;28;20210;-61
2023/05/03 11:20:02;;;;;;;5.10;2.25;;;;;;;;;;5066456;28;20217;-61
2023/05/03 11:22:28;;;;;;;5.80;2.22;;;;;;;;;;5068642;28;20226;-61
2023/05/03 11:24:53;;;;;;;6.45;1.95;;;;;;;;;;5069895;28;20268;-61
2023/05/03 11:27:23;;;;;;;5.05;2.00;;;;;;;;;;5068452;28;20655;-61
2023/05/03 11:29:49;;;;;;;4.95;2.10;;;;;;;;;;5069660;28;20677;-61
2023/05/03 11:32:15;;;;;;;6.43;2.10;;;;;;;;;;5069028;28;20229;-61
2023/05/03 11:34:40;;;;;;;5.28;2.10;;;;;;;;;;5067564;28;20210;-61
2023/05/03 11:37:07;;;;;;;6.03;2.20;;;;;;;;;;5069212;28;20206;-61
2023/05/03 11:39:32;;;;;;;5.93;2.20;;;;;;;;;;5080562;28;20436;-61
2023/05/03 11:42:02;;;;;;;4.18;2.00;;;;;;;;;;5088906;28;20216;-61
2023/05/03 11:44:27;;;;;;;4.93;2.10;;;;;;;;;;5088106;28;20206;-61
2023/05/03 11:46:53;;;;;;;6.38;2.13;;;;;;;;;;5089503;28;20217;-61
2023/05/03 11:49:18;;;;;;;5.72;2.10;;;;;;;;;;5086990;28;20210;-61
2023/05/03 11:51:43;;;;;;;4.20;2.22;;;;;;;;;;5089641;28;20214;-61
2023/05/03 11:54:10;;;;;;;5.70;2.35;;;;;;;;;;5084074;28;20219;-61
2023/05/03 11:56:36;;;;;;;4.25;2.28;;;;;;;;;;5067540;28;20253;-61
2023/05/03 11:59:01;;;;;;;6.00;2.20;;;;;;;;;;5068842;28;20705;-61
2023/05/03 12:01:27;;;;;;;6.07;2.28;;;;;;;;;;5067883;28;20274;-61
2023/05/03 12:03:54;;;;;;;8.05;2.10;;;;;;;;;;5067233;28;20207;-61
2023/05/03 12:06:19;;;;;;;4.22;1.90;;;;;;;;;;5068737;28;20696;-61
2023/05/03 12:08:44;;;;;;;7.43;2.15;;;;;;;;;;5069588;28;20272;-61
2023/05/03 12:11:10;;;;;;;6.45;2.00;;;;;;;;;;5085949;28;20237;-61
2023/05/03 12:13:36;;;;;;;6.35;1.92;;;;;;;;;;5089216;28;20425;-61
2023/05/03 12:16:03;;;;;;;5.47;1.83;;;;;;;;;;5084571;28;20494;-61
2023/05/03 12:18:43;;;;;;;6.35;2.20;;;;;;;;;;5067203;28;20218;-62
2023/05/03 12:21:08;;;;;;;5.32;2.80;;;;;;;;;;5067468;28;20208;-62
2023/05/03 12:23:34;;;;;;;5.00;2.42;;;;;;;;;;5068570;28;20214;-61
2023/05/03 12:25:59;;;;;;;5.63;2.30;;;;;;;;;;5068918;28;20519;-61
2023/05/03 12:28:25;;;;;;;6.18;2.15;;;;;;;;;;5068734;28;20291;-61
2023/05/03 12:30:50;;;;;;;7.05;2.38;;;;;;;;;;5070716;28;20589;-61
2023/05/03 12:33:17;;;;;;;6.35;2.42;;;;;;;;;;5072246;28;20226;-61
2023/05/03 12:35:42;;;;;;;4.63;2.15;;;;;;;;;;5072717;28;20348;-61
2023/05/03 12:38:07;;;;;;;6.65;2.40;;;;;;;;;;5071526;28;20207;-61
2023/05/03 12:40:33;;;;;;;4.20;2.30;;;;;;;;;;5072752;28;20202;-61
2023/05/03 12:42:58;;;;;;;8.30;2.47;;;;;;;;;;5072718;28;20668;-61
2023/05/03 12:45:26;;;;;;;10.40;2.47;;;;;;;;;;5071139;28;20230;-61
2023/05/03 12:47:51;;;;;;;6.72;2.55;;;;;;;;;;5072686;28;20232;-61
2023/05/03 12:50:17;;;;;;;6.63;2.60;;;;;;;;;;5071723;28;20340;-61
2023/05/03 12:52:42;;;;;;;5.72;2.22;;;;;;;;;;5071595;28;20234;-61
2023/05/03 12:55:08;;;;;;;6.70;2.70;;;;;;;;;;5071935;28;20701;-61
2023/05/03 12:57:33;;;;;;;8.75;2.80;;;;;;;;;;5072333;28;20218;-61
2023/05/03 12:59:58;;;;;;;4.53;2.70;;;;;;;;;;5071607;28;20206;-61
2023/05/03 13:02:24;;;;;;;5.93;2.67;;;;;;;;;;5071749;28;20670;-61
2023/05/03 13:04:54;;;;;;;6.68;2.90;;;;;;;;;;5072267;28;20242;-61
2023/05/03 13:07:20;;;;;;;5.05;2.90;;;;;;;;;;5090981;28;20217;-61
2023/05/03 13:09:46;;;;;;;8.30;3.50;;;;;;;;;;5084293;28;20587;-61
2023/05/03 13:12:11;;;;;;;7.00;2.88;;;;;;;;;;5071411;28;20234;-61
2023/05/03 13:14:37;;;;;;;5.93;3.42;;;;;;;;;;5071229;28;20584;-61
2023/05/03 13:17:03;;;;;;;6.03;2.78;;;;;;;;;;5067532;28;20214;-61
2023/05/03 13:19:28;;;;;;;5.57;3.08;;;;;;;;;;5072020;28;20221;-61
2023/05/03 13:21:53;;;;;;;5.38;2.88;;;;;;;;;;5071353;28;20647;-61
2023/05/03 13:24:19;;;;;;;5.80;3.08;;;;;;;;;;5071454;28;20221;-61
2023/05/03 13:26:45;;;;;;;6.05;3.20;;;;;;;;;;5071082;28;20260;-61
2023/05/03 13:29:10;;;;;;;8.07;3.28;;;;;;;;;;5071323;28;20673;-61
2023/05/03 13:31:35;;;;;;;6.10;3.40;;;;;;;;;;5071701;28;20599;-61
2023/05/03 13:34:01;;;;;;;7.00;3.50;;;;;;;;;;5070463;28;20253;-61
2023/05/03 13:36:27;;;;;;;7.35;3.40;;;;;;;;;;5071793;28;20210;-61
2023/05/03 13:38:52;;;;;;;6.05;3.20;;;;;;;;;;5071691;28;20207;-61
2023/05/03 13:41:18;;;;;;;6.45;2.72;;;;;;;;;;5069292;28;20608;-61
2023/05/03 13:43:43;;;;;;;6.22;3.20;;;;;;;;;;5071685;28;20264;-61
2023/05/03 13:46:08;;;;;;;6.65;3.33;;;;;;;;;;5071080;28;20731;-61
2023/05/03 13:48:34;;;;;;;5.05;2.80;;;;;;;;;;5070567;28;20222;-61
2023/05/03 13:50:59;;;;;;;7.13;3.20;;;;;;;;;;5071229;28;20221;-61
2023/05/03 13:53:25;;;;;;;5.90;3.00;;;;;;;;;;5070743;28;20293;-61
2023/05/03 13:55:50;;;;;;;6.57;3.20;;;;;;;;;;5075409;28;20206;-61
2023/05/03 13:58:16;;;;;;;4.32;3.05;;;;;;;;;;5069762;28;20234;-61
2023/05/03 14:00:41;;;;;;;5.57;2.97;;;;;;;;;;5066442;28;20203;-61
2023/05/03 14:03:06;;;;;;;6.53;3.00;;;;;;;;;;5070177;28;20214;-61
2023/05/03 14:05:31;;;;;;;4.88;3.00;;;;;;;;;;5076455;28;20674;-61
2023/05/03 14:07:57;;;;;;;5.13;2.78;;;;;;;;;;5083083;28;20224;-62
2023/05/03 14:10:22;;;;;;;7.22;2.85;;;;;;;;;;5071525;28;20214;-61
2023/05/03 14:12:47;;;;;;;6.80;3.15;;;;;;;;;;5083014;28;20310;-61
2023/05/03 14:15:13;;;;;;;5.85;2.70;;;;;;;;;;5076741;28;20241;-61
2023/05/03 14:17:39;;;;;;;4.95;3.20;;;;;;;;;;5064894;28;20226;-61
2023/05/03 14:20:06;;;;;;;6.03;2.97;;;;;;;;;;5082599;28;20210;-61
2023/05/03 14:22:32;;;;;;;8.52;3.13;;;;;;;;;;5075318;28;20206;-61
2023/05/03 14:24:57;;;;;;;6.13;3.10;;;;;;;;;;5076866;28;20515;-61
2023/05/03 14:27:22;;;;;;;6.25;3.10;;;;;;;;;;5078446;28;20201;-61
2023/05/03 14:29:48;;;;;;;8.20;3.10;;;;;;;;;;5084527;28;20661;-61
2023/05/03 14:32:14;;;;;;;5.72;3.45;;;;;;;;;;5075828;28;20206;-61
2023/05/03 14:34:39;;;;;;;6.50;3.35;;;;;;;;;;5064822;28;20214;-61